OINN  Noshahr Airport

Add Bookmark

Iran

Status IATA
Operational NSH
Latitude Longitude
36° 39' 47" N 51° 27' 52" E
36.663300 51.464699
Local (DST + 5) UTC (GMT + 4)
Oct 21, 2014 07:13 Oct 21, 2014 03:43
Sunrise-Sunset Local UTC
Begin Civil Twilight 05:49 02:19
Sunrise 06:15 02:45
Sunset 05:21 13:51
End Civil Twilight 05:47 14:17

Current Weather

METAR Observed VFR
OINN 210300Z 18004KT 9999 FEW024 SCT040 OVC120 14/13 Q1016 Tue, Oct 21, 2014 @ 03:00 UTC
(43 Minutes ago)
Visual Flight Rules
Wind Visibility Clouds Conditions
180° at 4 knots (7 kph) 10 km or more
  • Few at 2,400' AGL
  • Scattered at 4,000' AGL
  • Overcast at 12,000' AGL
  • No significant weather
Temperatures Readings Precipitation
Current Temp 14°C (57°F)
Dewpoint 13°C (55°F)
Humidity 94%
Altimeter 30"Hg
Sea Level Pressure 1016mb
None Recorded

Additional weather within a 92.6km radius of OINN

Map ICAO Location
OINR 75km W (292°)

24 Hour Weather History

Loading
-

24 Hour Weather Graphs

Loading
-

CheckWX.com is intended as a tool to help pilots better visualize weather data. It is not intended as a substitute for an official weather briefing obtained from a Flight Service Station. CheckWX.com does not meet the FAA requirements for an official pre-flight weather briefing. Therefore, it's important that pilots still call and obtain an official FSS pre-flight weather briefing.